Blackfoot, Texas
Current Conditions -  °F | °C
As of 6:35 AM on Monday 22 Dec 2014 (Local Time) from KPSN Reporting Station
Overcast Overcast  
Wind Chill: 57°   Ceiling: 1400
Heat Index: 57°   Visibility: 7mi
Dew Point: 55°   Wind: 10mph
Humidity: 94%   Direction: 180°S
Pressure: 29.7"   Gusts: NA
Location:  31.935°N, 95.7672°W
Report Text: KPSN 221235Z AUTO 18009KT 7SM SCT009 OVC014 13/12 A2970 RMK AO2 T01370127
Loading
Personal Weather Stations






























Interactive Weather Map New forecast layout! Learn more

10-Day Weather Forecast

Advertisements
Track Severe Weather on mobile